In Rescue
 
Open Full Screen Window  High Contrast Mode
Wind Gusting 00 knots
03
March 19, 2019 10:45 AM CDT
Weather Information
Wind Direction
  260 °
Wind Speed
  03 kt (3 mph)
Wind Gust
  00 kt (0 mph)
Altimeter
30.19 in
Visibility
10 SM
Temperature
01° C
34° F
Dewpoint
-04° C
25° F
Humidity
70%
1hr Rain Fall
00.00 in.
24hr Rain Fall
00.00 in.
Sky Condition
Overcast @ 4,600 ft
VFR

METAR KPWC 191545Z AUTO 26003KT 10SM OVC046 01/M04 A3019 RMK AO2

FAA Disclaimer: The data displayed is for advisory purposes only and is not to be used for flight planning or operations.